This is the latest recevied weather packets stored in our database for station/object VANOK. If no packets are shown the sender has not sent any weather packets the latest 10 day(s).
| Time | Temp. | Humidity | Pressure | Rain* | Wind** | Luminosity | Snow |
|---|---|---|---|---|---|---|---|
| 1777717627 | 10° C | 63% | 1012 hPa | - | - | - | - |
| 1777716427 | 10.56° C | 61% | 1011.9 hPa | - | - | - | - |
| 1777715226 | 9.44° C | 65% | 1012 hPa | - | - | - | - |
| 1777714027 | 9.44° C | 67% | 1012.2 hPa | - | - | - | - |
| 1777712827 | 10° C | 65% | 1012.2 hPa | - | - | - | - |
| 1777711627 | 10° C | 63% | 1012.2 hPa | - | - | - | - |
| 1777710427 | 11.67° C | 59% | 1012.3 hPa | - | - | - | - |
| 1777709227 | 10.56° C | 59% | 1012.4 hPa | - | - | - | - |
| 1777708027 | 9.44° C | 63% | 1012.5 hPa | - | - | - | - |
| 1777706826 | 10° C | 63% | 1012.6 hPa | - | - | - | - |
| 1777705626 | 10° C | 62% | 1012.6 hPa | - | - | - | - |
| 1777704426 | 9.44° C | 66% | 1012.7 hPa | - | - | - | - |
| 1777703226 | 9.44° C | 64% | 1012.7 hPa | - | - | - | - |
| 1777702026 | 9.44° C | 65% | 1012.6 hPa | - | - | - | - |
| 1777700826 | 8.89° C | 67% | 1012.7 hPa | - | - | - | - |
| 1777699626 | 9.44° C | 67% | 1012.6 hPa | - | - | - | - |
| 1777698426 | 8.89° C | 68% | 1012.6 hPa | - | - | - | - |
| 1777697226 | 8.89° C | 69% | 1012.5 hPa | - | - | - | - |
| 1777696026 | 8.33° C | 71% | 1012.5 hPa | - | - | - | - |
| 1777694825 | 8.33° C | 72% | 1012.5 hPa | - | - | - | - |
| 1777693626 | 8.33° C | 72% | 1012.6 hPa | - | - | - | - |
| 1777692425 | 8.33° C | 73% | 1012.6 hPa | - | - | - | - |
| 1777691226 | 8.33° C | 72% | 1012.7 hPa | - | - | - | - |
| 1777690026 | 7.78° C | 73% | 1012.8 hPa | - | - | - | - |
| 1777688826 | 8.89° C | 69% | 1013 hPa | - | - | - | - |
* Rain since midnight (hover to see other rain measurements)
** Current wind speed in m/s (hover to see current wind gust speed)